createdAt,value
2023-03-06T00:00:31.819Z,-0.24
2023-03-06T00:02:58.598Z,-0.18
2023-03-06T00:05:26.205Z,-0.16
2023-03-06T00:07:53.067Z,-0.20
2023-03-06T00:10:23.962Z,-0.13
2023-03-06T00:12:59.639Z,-0.12
2023-03-06T00:15:27.707Z,-0.08
2023-03-06T00:17:54.775Z,-0.04
2023-03-06T00:20:22.639Z,-0.02
2023-03-06T00:22:50.123Z,0.01
2023-03-06T00:25:20.053Z,0.05
2023-03-06T00:27:47.101Z,0.01
2023-03-06T00:30:16.661Z,-0.08
2023-03-06T00:32:43.746Z,-0.11
2023-03-06T00:35:12.014Z,-0.02
2023-03-06T00:37:39.239Z,-0.02
2023-03-06T00:40:08.385Z,-0.11
2023-03-06T00:42:35.116Z,-0.06
2023-03-06T00:45:01.961Z,-0.18
2023-03-06T00:47:28.664Z,-0.11
2023-03-06T00:49:55.380Z,-0.04
2023-03-06T00:52:22.158Z,-0.02
2023-03-06T00:54:48.901Z,0.14
2023-03-06T00:57:15.623Z,0.11
2023-03-06T00:59:42.368Z,-0.05
2023-03-06T01:02:09.426Z,0.03
2023-03-06T01:04:36.259Z,-0.04
2023-03-06T01:07:04.307Z,-0.02
2023-03-06T01:09:31.600Z,0.11
2023-03-06T01:11:58.361Z,0.17
2023-03-06T01:14:25.136Z,0.23
2023-03-06T01:16:51.968Z,0.18
2023-03-06T01:19:18.741Z,0.25
2023-03-06T01:21:46.265Z,0.23
2023-03-06T01:24:13.048Z,0.25
2023-03-06T01:26:39.757Z,0.28
2023-03-06T01:29:06.479Z,0.27
2023-03-06T01:31:33.510Z,0.33
2023-03-06T01:34:01.327Z,0.33
2023-03-06T01:36:28.330Z,0.35
2023-03-06T01:38:55.055Z,0.38
2023-03-06T01:41:22.040Z,0.38
2023-03-06T01:43:48.967Z,0.37
2023-03-06T01:46:28.616Z,0.31
2023-03-06T01:48:58.058Z,0.20
2023-03-06T01:51:30.627Z,0.30
2023-03-06T01:54:01.506Z,0.26
2023-03-06T01:56:28.906Z,0.28
2023-03-06T01:58:56.438Z,0.33
2023-03-06T02:01:23.458Z,0.34
2023-03-06T02:03:51.090Z,0.33
2023-03-06T02:06:21.693Z,0.35
2023-03-06T02:08:51.672Z,0.42
2023-03-06T02:11:22.788Z,0.39
2023-03-06T02:13:52.372Z,0.35
2023-03-06T02:16:22.518Z,0.43
2023-03-06T02:18:50.649Z,0.49
2023-03-06T02:21:27.236Z,0.47
2023-03-06T02:23:53.931Z,0.44
2023-03-06T02:26:21.757Z,0.47
2023-03-06T02:28:48.575Z,0.51
2023-03-06T02:31:25.189Z,0.53
2023-03-06T02:34:08.232Z,0.52
2023-03-06T02:36:41.886Z,0.50
2023-03-06T02:39:08.982Z,0.47
2023-03-06T02:41:35.773Z,0.48
2023-03-06T02:44:02.893Z,0.47
2023-03-06T02:46:29.680Z,0.49
2023-03-06T02:48:56.554Z,0.38
2023-03-06T02:51:23.680Z,0.52
2023-03-06T02:53:50.850Z,0.56
2023-03-06T02:56:19.287Z,0.58
2023-03-06T02:58:46.442Z,0.56
2023-03-06T03:01:13.620Z,0.59
2023-03-06T03:03:42.052Z,0.60
2023-03-06T03:06:09.703Z,0.61
2023-03-06T03:08:37.140Z,0.62
2023-03-06T03:11:05.000Z,0.63
2023-03-06T03:13:39.066Z,0.62
2023-03-06T03:16:11.768Z,0.62
2023-03-06T03:18:38.597Z,0.63
2023-03-06T03:21:10.271Z,0.62
2023-03-06T03:23:37.019Z,0.55
2023-03-06T03:26:13.363Z,0.51
2023-03-06T03:28:43.665Z,0.50
2023-03-06T03:31:12.993Z,0.40
2023-03-06T03:33:40.802Z,0.43
2023-03-06T03:36:09.446Z,0.38
2023-03-06T03:38:40.251Z,0.39
2023-03-06T03:41:07.088Z,0.42
2023-03-06T03:43:34.454Z,0.44
2023-03-06T03:46:01.143Z,0.48
2023-03-06T03:48:28.538Z,0.49
2023-03-06T03:51:04.633Z,0.51
2023-03-06T03:53:32.255Z,0.53
2023-03-06T03:55:59.083Z,0.51
2023-03-06T03:58:26.438Z,0.40
2023-03-06T04:00:53.440Z,0.47
2023-03-06T04:03:20.166Z,0.52
2023-03-06T04:05:46.943Z,0.51
2023-03-06T04:08:16.031Z,0.52
2023-03-06T04:10:45.682Z,0.50
2023-03-06T04:13:14.834Z,0.50
2023-03-06T04:15:43.858Z,0.50
2023-03-06T04:18:11.369Z,0.47
2023-03-06T04:20:38.698Z,0.44
2023-03-06T04:23:05.420Z,0.42
2023-03-06T04:25:32.694Z,0.39
2023-03-06T04:28:02.250Z,0.37
2023-03-06T04:30:29.962Z,0.34
2023-03-06T04:32:57.712Z,0.34
2023-03-06T04:35:24.770Z,0.29
2023-03-06T04:37:57.857Z,0.33
2023-03-06T04:40:29.397Z,0.30
2023-03-06T04:42:58.158Z,0.34
2023-03-06T04:45:26.044Z,0.34
2023-03-06T04:47:53.095Z,0.37
2023-03-06T04:50:20.707Z,0.35
2023-03-06T04:52:47.574Z,0.28
2023-03-06T04:55:16.040Z,0.23
2023-03-06T04:57:44.825Z,0.16
2023-03-06T05:00:19.882Z,0.11
2023-03-06T05:02:47.733Z,0.10
2023-03-06T05:05:15.789Z,0.06
2023-03-06T05:07:42.986Z,0.14
2023-03-06T05:10:14.559Z,0.15
2023-03-06T05:12:41.671Z,0.18
2023-03-06T05:15:09.790Z,0.19
2023-03-06T05:17:37.047Z,0.18
2023-03-06T05:20:06.273Z,0.22
2023-03-06T05:22:34.399Z,0.21
2023-03-06T05:25:01.266Z,0.16
2023-03-06T05:27:28.639Z,0.12
2023-03-06T05:29:55.634Z,0.10
2023-03-06T05:32:22.803Z,0.09
2023-03-06T05:34:49.702Z,0.08
2023-03-06T05:37:16.675Z,0.07
2023-03-06T05:39:43.942Z,0.05
2023-03-06T05:42:10.860Z,0.02
2023-03-06T05:44:37.984Z,0.00
2023-03-06T05:47:05.124Z,0.01
2023-03-06T05:49:32.406Z,0.00
2023-03-06T05:51:59.287Z,0.01
2023-03-06T05:54:26.729Z,-0.02
2023-03-06T05:56:53.665Z,-0.02
2023-03-06T05:59:20.451Z,0.01
2023-03-06T06:01:47.323Z,0.01
2023-03-06T06:04:14.045Z,-0.10
2023-03-06T06:06:40.815Z,-0.15
2023-03-06T06:09:07.649Z,-0.20
2023-03-06T06:11:34.413Z,-0.17
2023-03-06T06:14:01.149Z,-0.20
2023-03-06T06:16:27.856Z,-0.14
2023-03-06T06:18:54.968Z,-0.07
2023-03-06T06:21:21.704Z,-0.05
2023-03-06T06:23:48.817Z,0.09
2023-03-06T06:26:15.814Z,0.24
2023-03-06T06:28:42.486Z,0.35
2023-03-06T06:31:13.238Z,0.47
2023-03-06T06:33:41.168Z,0.63
2023-03-06T06:36:21.647Z,0.81
2023-03-06T06:38:49.584Z,1.00
2023-03-06T06:41:39.222Z,1.23
2023-03-06T06:44:08.814Z,1.44
2023-03-06T06:49:23.279Z,1.94
2023-03-06T06:51:49.978Z,2.19
2023-03-06T06:54:16.786Z,2.33
2023-03-06T06:56:43.519Z,2.32
2023-03-06T06:59:16.539Z,2.37
2023-03-06T07:01:44.603Z,2.25
2023-03-06T07:04:14.674Z,2.30
2023-03-06T07:06:42.327Z,2.33
2023-03-06T07:09:09.152Z,2.49
2023-03-06T07:11:37.997Z,2.41
2023-03-06T07:14:05.201Z,2.33
2023-03-06T07:16:31.951Z,2.21
2023-03-06T07:18:58.675Z,2.26
2023-03-06T07:21:25.485Z,2.12
2023-03-06T07:23:52.292Z,1.96
2023-03-06T07:26:19.082Z,1.95
2023-03-06T07:28:52.415Z,1.95
2023-03-06T07:31:25.884Z,2.04
2023-03-06T07:33:54.402Z,2.13
2023-03-06T07:36:23.298Z,2.25
2023-03-06T07:38:50.358Z,2.24
2023-03-06T07:41:21.209Z,2.27
2023-03-06T07:43:49.811Z,2.35
2023-03-06T07:46:17.367Z,2.61
2023-03-06T07:48:44.690Z,2.85
2023-03-06T07:51:15.954Z,3.04
2023-03-06T07:53:43.080Z,3.20
2023-03-06T07:56:11.176Z,3.62
2023-03-06T07:58:47.147Z,3.67
2023-03-06T08:01:19.691Z,3.80
2023-03-06T08:03:47.363Z,3.59
2023-03-06T08:06:23.238Z,3.68
2023-03-06T08:08:51.422Z,3.63
2023-03-06T08:11:20.675Z,3.63
2023-03-06T08:13:48.851Z,3.55
2023-03-06T08:16:17.451Z,3.61
2023-03-06T08:18:46.256Z,3.48
2023-03-06T08:21:26.455Z,3.35
2023-03-06T08:23:53.548Z,3.52
2023-03-06T08:26:24.815Z,3.59
2023-03-06T08:28:53.260Z,3.87
2023-03-06T08:31:26.357Z,3.78
2023-03-06T08:33:53.998Z,3.82
2023-03-06T08:36:20.762Z,3.99
2023-03-06T08:38:47.533Z,4.08
2023-03-06T08:41:14.248Z,4.18
2023-03-06T08:43:41.047Z,4.33
2023-03-06T08:46:07.927Z,4.77
2023-03-06T08:48:34.680Z,5.16
2023-03-06T08:51:01.527Z,5.47
2023-03-06T08:53:42.076Z,5.15
2023-03-06T08:56:24.661Z,4.85
2023-03-06T08:58:53.066Z,5.07
2023-03-06T09:01:31.048Z,5.55
2023-03-06T09:04:00.754Z,5.88
2023-03-06T09:06:31.012Z,5.32
2023-03-06T09:08:58.199Z,5.07
2023-03-06T09:11:26.568Z,5.03
2023-03-06T09:13:54.225Z,5.30
2023-03-06T09:16:21.333Z,5.50
2023-03-06T09:18:50.389Z,5.58
2023-03-06T09:21:17.167Z,5.97
2023-03-06T09:23:43.872Z,6.54
2023-03-06T09:26:11.599Z,6.78
2023-03-06T09:28:40.277Z,6.35
2023-03-06T09:31:15.185Z,6.21
2023-03-06T09:33:41.933Z,6.11
2023-03-06T09:36:13.753Z,6.47
2023-03-06T09:38:40.580Z,6.29
2023-03-06T09:41:14.459Z,6.13
2023-03-06T09:43:45.848Z,6.48
2023-03-06T09:46:39.590Z,6.74
2023-03-06T09:49:12.136Z,7.16
2023-03-06T09:51:51.039Z,7.51
2023-03-06T09:54:25.210Z,7.42
2023-03-06T09:56:51.980Z,8.03
2023-03-06T09:59:26.225Z,7.96
2023-03-06T10:02:29.448Z,7.78
2023-03-06T10:05:01.772Z,7.70
2023-03-06T10:07:41.599Z,7.90
2023-03-06T10:10:25.810Z,8.05
2023-03-06T10:13:04.090Z,8.34
2023-03-06T10:15:36.224Z,8.44
2023-03-06T10:18:05.167Z,8.58
2023-03-06T10:20:46.442Z,8.64
2023-03-06T10:23:26.491Z,8.72
2023-03-06T10:26:11.281Z,8.17
2023-03-06T10:29:13.006Z,7.71
2023-03-06T10:31:44.852Z,7.82
2023-03-06T10:34:28.637Z,8.00
2023-03-06T10:36:57.923Z,7.98
2023-03-06T10:39:24.692Z,8.48
2023-03-06T10:41:51.406Z,8.74
2023-03-06T10:44:23.579Z,9.11
2023-03-06T10:46:52.970Z,9.26
2023-03-06T10:49:34.701Z,9.41
2023-03-06T10:52:15.255Z,9.21
2023-03-06T10:54:44.315Z,8.87
2023-03-06T10:57:28.780Z,8.94
2023-03-06T11:00:01.090Z,8.84
2023-03-06T11:02:37.274Z,9.16
2023-03-06T11:05:06.682Z,9.05
2023-03-06T11:07:35.314Z,9.04
2023-03-06T11:10:07.986Z,8.68
2023-03-06T11:12:40.120Z,8.61
2023-03-06T11:15:06.815Z,8.76
2023-03-06T11:17:39.122Z,8.51
2023-03-06T11:20:14.558Z,8.91
2023-03-06T11:22:43.184Z,9.24
2023-03-06T11:25:15.132Z,9.12
2023-03-06T11:27:44.956Z,8.47
2023-03-06T11:30:23.838Z,8.31
2023-03-06T11:32:57.590Z,8.56
2023-03-06T11:35:28.425Z,8.70
2023-03-06T11:38:27.574Z,9.04
2023-03-06T11:40:59.050Z,8.82
2023-03-06T11:43:31.468Z,8.55
2023-03-06T11:46:30.679Z,9.04
2023-03-06T11:49:25.360Z,9.41
2023-03-06T11:51:56.424Z,9.70
2023-03-06T11:54:23.543Z,9.90
2023-03-06T11:56:58.456Z,9.86
2023-03-06T12:00:07.859Z,9.97
2023-03-06T12:02:44.328Z,9.33
2023-03-06T12:05:42.017Z,9.64
2023-03-06T12:08:26.496Z,9.90
2023-03-06T12:11:42.039Z,10.05
2023-03-06T12:14:11.550Z,9.98
2023-03-06T12:16:53.162Z,10.07
2023-03-06T12:19:35.214Z,9.93
2023-03-06T12:22:10.935Z,9.77
2023-03-06T12:25:19.461Z,9.75
2023-03-06T12:27:53.883Z,9.89
2023-03-06T12:30:26.409Z,9.93
2023-03-06T12:33:12.293Z,9.81
2023-03-06T12:35:57.467Z,9.81
2023-03-06T12:38:33.425Z,9.71
2023-03-06T12:41:00.103Z,9.46
2023-03-06T12:43:32.773Z,9.50
2023-03-06T12:46:09.466Z,9.58
2023-03-06T12:48:39.687Z,9.41
2023-03-06T12:51:10.908Z,9.50
2023-03-06T12:53:39.626Z,9.57
2023-03-06T12:56:07.579Z,9.62
2023-03-06T12:58:35.828Z,9.52
2023-03-06T13:01:27.478Z,9.61
2023-03-06T13:04:13.694Z,9.42
2023-03-06T13:06:54.177Z,9.48
2023-03-06T13:09:43.494Z,9.43
2023-03-06T13:12:24.615Z,9.37
2023-03-06T13:15:00.048Z,9.17
2023-03-06T13:17:38.066Z,8.73
2023-03-06T13:20:13.739Z,8.69
2023-03-06T13:22:45.270Z,8.56
2023-03-06T13:25:21.067Z,8.63
2023-03-06T13:27:54.284Z,8.60
2023-03-06T13:30:39.339Z,8.51
2023-03-06T13:33:36.358Z,8.52
2023-03-06T13:36:23.999Z,8.57
2023-03-06T13:38:56.985Z,8.55
2023-03-06T13:41:23.616Z,8.43
2023-03-06T13:44:14.633Z,8.45
2023-03-06T13:46:41.387Z,8.31
2023-03-06T13:49:08.020Z,8.46
2023-03-06T13:51:37.642Z,8.50
2023-03-06T13:54:28.934Z,8.57
2023-03-06T13:57:04.786Z,8.56
2023-03-06T14:00:14.747Z,8.53
2023-03-06T14:03:28.644Z,8.53
2023-03-06T14:05:58.044Z,8.29
2023-03-06T14:08:34.314Z,8.37
2023-03-06T14:11:05.055Z,8.38
2023-03-06T14:13:53.394Z,8.40
2023-03-06T14:16:29.089Z,8.46
2023-03-06T14:19:00.282Z,8.51
2023-03-06T14:22:01.341Z,8.49
2023-03-06T14:24:39.215Z,8.64
2023-03-06T14:27:07.238Z,8.57
2023-03-06T14:29:35.479Z,8.64
2023-03-06T14:32:06.294Z,8.61
2023-03-06T14:34:40.949Z,8.59
2023-03-06T14:37:24.624Z,8.50
2023-03-06T14:39:54.000Z,8.51
2023-03-06T14:42:25.465Z,8.09
2023-03-06T14:45:16.725Z,8.05
2023-03-06T14:47:50.909Z,8.17
2023-03-06T14:50:26.324Z,8.17
2023-03-06T14:53:14.674Z,8.18
2023-03-06T14:55:52.497Z,8.30
2023-03-06T14:58:48.918Z,8.29
2023-03-06T15:01:18.382Z,8.25
2023-03-06T15:03:53.419Z,8.21
2023-03-06T15:06:25.462Z,8.16
2023-03-06T15:09:09.510Z,8.06
2023-03-06T15:12:21.280Z,8.03
2023-03-06T15:14:56.287Z,7.96
2023-03-06T15:17:28.203Z,7.85
2023-03-06T15:19:59.079Z,7.89
2023-03-06T15:22:43.536Z,7.77
2023-03-06T15:25:31.948Z,7.82
2023-03-06T15:28:22.313Z,7.72
2023-03-06T15:31:28.640Z,7.83
2023-03-06T15:34:12.704Z,7.85
2023-03-06T15:36:42.239Z,7.91
2023-03-06T15:39:42.080Z,7.93
2023-03-06T15:42:31.146Z,7.98
2023-03-06T15:45:09.129Z,7.97
2023-03-06T15:47:38.349Z,8.00
2023-03-06T15:50:24.026Z,8.01
2023-03-06T15:52:51.283Z,7.98
2023-03-06T15:55:22.861Z,7.98
2023-03-06T15:57:56.510Z,7.99
2023-03-06T16:00:30.083Z,7.90
2023-03-06T16:02:57.614Z,7.88
2023-03-06T16:05:25.929Z,7.82
2023-03-06T16:07:52.884Z,7.87
2023-03-06T16:10:22.507Z,7.85
2023-03-06T16:13:04.534Z,7.81
2023-03-06T16:15:37.353Z,7.75
2023-03-06T16:18:04.970Z,7.62
2023-03-06T16:20:32.827Z,7.61
2023-03-06T16:22:59.670Z,7.46
2023-03-06T16:25:28.146Z,7.43
2023-03-06T16:28:01.068Z,7.42
2023-03-06T16:30:31.244Z,7.32
2023-03-06T16:32:58.718Z,7.28
2023-03-06T16:35:26.351Z,7.23
2023-03-06T16:37:53.408Z,7.12
2023-03-06T16:40:26.219Z,7.13
2023-03-06T16:42:54.827Z,7.15
2023-03-06T16:45:23.506Z,7.14
2023-03-06T16:47:50.477Z,7.15
2023-03-06T16:50:33.046Z,7.14
2023-03-06T16:53:00.007Z,7.15
2023-03-06T16:55:27.742Z,7.14
2023-03-06T16:57:54.798Z,7.10
2023-03-06T17:00:22.550Z,7.10
2023-03-06T17:02:49.895Z,7.05
2023-03-06T17:05:16.995Z,7.06
2023-03-06T17:07:43.843Z,7.02
2023-03-06T17:10:13.914Z,6.99
2023-03-06T17:12:41.522Z,6.84
2023-03-06T17:15:08.930Z,6.81
2023-03-06T17:17:35.911Z,6.76
2023-03-06T17:20:03.516Z,6.76
2023-03-06T17:22:33.522Z,6.75
2023-03-06T17:25:05.124Z,6.75
2023-03-06T17:27:31.866Z,6.75
2023-03-06T17:29:59.073Z,6.71
2023-03-06T17:32:27.471Z,6.56
2023-03-06T17:34:54.719Z,6.44
2023-03-06T17:37:21.494Z,6.37
2023-03-06T17:39:48.199Z,6.32
2023-03-06T17:42:15.623Z,6.17
2023-03-06T17:44:42.312Z,6.03
2023-03-06T17:47:08.986Z,5.88
2023-03-06T17:49:35.730Z,5.69
2023-03-06T17:52:04.838Z,5.63
2023-03-06T17:54:33.236Z,5.54
2023-03-06T17:57:03.415Z,5.60
2023-03-06T17:59:31.462Z,5.65
2023-03-06T18:02:01.459Z,5.71
2023-03-06T18:04:28.715Z,5.74
2023-03-06T18:06:57.047Z,5.75
2023-03-06T18:09:24.344Z,5.78
2023-03-06T18:11:51.062Z,5.83
2023-03-06T18:14:17.884Z,5.84
2023-03-06T18:16:44.611Z,5.90
2023-03-06T18:19:12.695Z,5.89
2023-03-06T18:21:40.299Z,5.88
2023-03-06T18:24:07.704Z,5.82
2023-03-06T18:26:34.580Z,5.82
2023-03-06T18:29:04.416Z,5.82
2023-03-06T18:31:39.433Z,5.84
2023-03-06T18:34:14.754Z,5.75
2023-03-06T18:36:43.581Z,5.54
2023-03-06T18:39:12.240Z,5.63
2023-03-06T18:41:39.188Z,5.54
2023-03-06T18:44:06.091Z,5.36
2023-03-06T18:46:36.474Z,5.09
2023-03-06T18:49:04.046Z,5.18
2023-03-06T18:51:31.261Z,5.02
2023-03-06T18:53:58.957Z,5.19
2023-03-06T18:56:26.195Z,5.21
2023-03-06T18:58:53.783Z,5.38
2023-03-06T19:01:24.082Z,5.40
2023-03-06T19:03:54.178Z,5.44
2023-03-06T19:06:20.941Z,5.45
2023-03-06T19:08:56.691Z,5.46
2023-03-06T19:11:23.432Z,5.24
2023-03-06T19:13:50.468Z,5.43
2023-03-06T19:16:19.805Z,5.45
2023-03-06T19:18:46.830Z,5.46
2023-03-06T19:21:16.714Z,5.46
2023-03-06T19:23:45.055Z,5.43
2023-03-06T19:26:12.087Z,5.43
2023-03-06T19:28:41.234Z,5.46
2023-03-06T19:31:13.934Z,5.46
2023-03-06T19:33:42.042Z,5.47
2023-03-06T19:36:13.809Z,5.52
2023-03-06T19:38:42.681Z,5.48
2023-03-06T19:41:13.932Z,5.56
2023-03-06T19:43:43.024Z,5.57
2023-03-06T19:46:14.535Z,5.58
2023-03-06T19:48:43.155Z,5.58
2023-03-06T19:51:12.025Z,5.46
2023-03-06T19:53:39.882Z,5.56
2023-03-06T19:56:15.670Z,5.49
2023-03-06T19:58:42.707Z,5.47
2023-03-06T20:01:20.201Z,5.49
2023-03-06T20:03:50.098Z,5.50
2023-03-06T20:06:20.119Z,5.46
2023-03-06T20:08:47.746Z,5.47
2023-03-06T20:11:19.544Z,5.50
2023-03-06T20:13:47.831Z,5.50
2023-03-06T20:16:18.902Z,5.51
2023-03-06T20:18:46.857Z,5.48
2023-03-06T20:21:16.311Z,5.49
2023-03-06T20:23:43.634Z,5.40
2023-03-06T20:26:13.399Z,5.49
2023-03-06T20:28:45.078Z,5.48
2023-03-06T20:31:16.807Z,5.45
2023-03-06T20:33:50.547Z,5.45
2023-03-06T20:36:23.760Z,5.41
2023-03-06T20:38:52.525Z,5.39
2023-03-06T20:41:26.092Z,5.32
2023-03-06T20:43:53.333Z,5.32
2023-03-06T20:46:22.404Z,5.32
2023-03-06T20:48:51.092Z,5.32
2023-03-06T20:51:20.854Z,5.29
2023-03-06T20:53:49.426Z,5.27
2023-03-06T20:56:19.640Z,5.24
2023-03-06T20:58:46.726Z,5.32
2023-03-06T21:01:22.433Z,4.96
2023-03-06T21:03:49.725Z,5.14
2023-03-06T21:06:16.806Z,5.10
2023-03-06T21:08:43.852Z,5.07
2023-03-06T21:11:10.606Z,4.93
2023-03-06T21:13:37.417Z,4.97
2023-03-06T21:16:06.543Z,5.05
2023-03-06T21:18:33.414Z,4.95
2023-03-06T21:21:05.370Z,4.87
2023-03-06T21:23:32.097Z,4.89
2023-03-06T21:25:58.793Z,4.88
2023-03-06T21:28:25.689Z,4.79
2023-03-06T21:30:52.503Z,4.90
2023-03-06T21:33:19.286Z,4.83
2023-03-06T21:35:46.864Z,4.84
2023-03-06T21:38:14.654Z,4.83
2023-03-06T21:40:41.469Z,4.85
2023-03-06T21:43:08.935Z,4.92
2023-03-06T21:45:35.720Z,4.98
2023-03-06T21:48:02.616Z,5.01
2023-03-06T21:50:29.461Z,5.02
2023-03-06T21:52:57.321Z,5.01
2023-03-06T21:55:24.077Z,4.92
2023-03-06T21:57:52.034Z,4.97
2023-03-06T22:00:19.579Z,5.01
2023-03-06T22:02:47.262Z,5.02
2023-03-06T22:05:14.009Z,5.02
2023-03-06T22:07:41.002Z,5.02
2023-03-06T22:10:12.206Z,5.02
2023-03-06T22:12:40.101Z,5.00
2023-03-06T22:15:07.996Z,5.01
2023-03-06T22:17:34.841Z,5.00
2023-03-06T22:20:01.512Z,4.98
2023-03-06T22:22:28.836Z,4.94
2023-03-06T22:24:55.522Z,4.88
2023-03-06T22:27:22.276Z,4.83
2023-03-06T22:29:49.052Z,4.81
2023-03-06T22:32:15.925Z,4.80
2023-03-06T22:34:42.730Z,4.77
2023-03-06T22:37:09.439Z,4.68
2023-03-06T22:39:36.136Z,4.50
2023-03-06T22:42:02.943Z,4.37
2023-03-06T22:44:29.634Z,4.33
2023-03-06T22:46:56.465Z,4.18
2023-03-06T22:49:23.162Z,4.31
2023-03-06T22:51:49.860Z,4.36
2023-03-06T22:54:16.636Z,4.43
2023-03-06T22:56:43.432Z,4.46
2023-03-06T22:59:10.117Z,4.54
2023-03-06T23:01:36.869Z,4.60
2023-03-06T23:04:04.920Z,4.67
2023-03-06T23:06:36.715Z,4.75
2023-03-06T23:09:06.811Z,4.79
2023-03-06T23:11:52.306Z,4.79
2023-03-06T23:14:37.936Z,4.79
2023-03-06T23:17:23.054Z,4.79
2023-03-06T23:20:10.184Z,4.77
2023-03-06T23:22:55.509Z,4.75
2023-03-06T23:25:42.474Z,4.72
2023-03-06T23:28:09.472Z,4.63
2023-03-06T23:30:38.555Z,4.72
2023-03-06T23:33:05.388Z,4.74
2023-03-06T23:35:36.289Z,4.70
2023-03-06T23:38:03.425Z,4.56
2023-03-06T23:40:33.387Z,4.50
2023-03-06T23:43:00.492Z,4.55
2023-03-06T23:45:27.509Z,4.54
2023-03-06T23:47:54.209Z,4.52
2023-03-06T23:50:21.171Z,4.41
2023-03-06T23:52:47.923Z,4.25
2023-03-06T23:55:14.641Z,4.24
2023-03-06T23:57:41.351Z,4.30
